Time;durP1;ratioP1;P1;durP2;ratioP2;P2;SDS_P1;SDS_P2;PMS_P1;PMS_P2;Temp;Humidity;BMP_temperature;BMP_pressure;BME280_temperature;BME280_humidity;BME280_pressure;Samples;Min_cycle;Max_cycle;Signal;HPM_P1;HPM_P2
2022/09/30 00:01:18;;;;;;;8.18;6.30;;;9.60;99.90;;;;;;5037670;28;20552;-81
2022/09/30 00:03:47;;;;;;;8.90;8.13;;;9.60;99.90;;;;;;5037539;28;20231;-81
2022/09/30 00:06:13;;;;;;;7.10;6.50;;;9.70;99.90;;;;;;5037265;28;20903;-81
2022/09/30 00:08:42;;;;;;;7.53;6.93;;;9.70;99.90;;;;;;5037171;28;20589;-81
2022/09/30 00:11:12;;;;;;;6.75;5.90;;;9.80;99.90;;;;;;5037332;28;20208;-81
2022/09/30 00:13:40;;;;;;;7.47;6.63;;;9.80;99.90;;;;;;5037893;28;20578;-81
2022/09/30 00:16:08;;;;;;;8.45;6.72;;;9.90;99.90;;;;;;5037382;28;20208;-80
2022/09/30 00:18:36;;;;;;;6.75;6.05;;;9.90;99.90;;;;;;5037558;28;20228;-81
2022/09/30 00:21:03;;;;;;;6.18;5.57;;;9.90;99.90;;;;;;5048499;28;20199;-81
2022/09/30 00:23:30;;;;;;;7.10;6.40;;;9.90;99.90;;;;;;5037566;28;20229;-81
2022/09/30 00:26:04;;;;;;;6.80;6.20;;;10.00;99.90;;;;;;5037483;28;20465;-81
2022/09/30 00:28:31;;;;;;;6.70;5.97;;;10.00;99.90;;;;;;5037324;28;20483;-80
2022/09/30 00:30:59;;;;;;;6.40;5.87;;;10.00;99.90;;;;;;5037123;28;20455;-81
2022/09/30 00:33:26;;;;;;;10.13;7.18;;;10.00;99.90;;;;;;5037166;28;20447;-82
2022/09/30 00:35:53;;;;;;;7.68;6.97;;;10.00;99.90;;;;;;5037229;28;20204;-81
2022/09/30 00:38:20;;;;;;;6.27;5.67;;;10.10;99.90;;;;;;5036391;28;20220;-81
2022/09/30 00:40:46;;;;;;;9.37;5.70;;;10.10;99.90;;;;;;5037092;28;20442;-81
2022/09/30 00:43:17;;;;;;;7.28;6.57;;;10.10;99.90;;;;;;5037174;28;20988;-81
2022/09/30 00:45:50;;;;;;;6.95;6.25;;;10.10;99.90;;;;;;5036731;28;20207;-81
2022/09/30 00:48:20;;;;;;;7.43;6.77;;;10.10;99.90;;;;;;5036663;28;20229;-81
2022/09/30 00:50:54;;;;;;;7.40;6.00;;;10.10;99.90;;;;;;5036891;28;20967;-81
2022/09/30 00:53:28;;;;;;;6.40;5.80;;;10.20;99.90;;;;;;5036425;28;20458;-81
2022/09/30 00:55:59;;;;;;;6.50;5.85;;;10.10;99.90;;;;;;5036814;28;20715;-80
2022/09/30 00:58:33;;;;;;;6.35;5.85;;;10.20;99.90;;;;;;5036502;28;20597;-81
2022/09/30 01:01:01;;;;;;;6.10;5.60;;;10.20;99.90;;;;;;5037406;28;20223;-81
2022/09/30 01:03:31;;;;;;;7.88;7.18;;;10.20;99.90;;;;;;5036009;28;20224;-81
2022/09/30 01:05:58;;;;;;;8.37;7.13;;;10.20;99.90;;;;;;5037356;28;20207;-81
2022/09/30 01:08:25;;;;;;;6.75;6.15;;;10.20;99.90;;;;;;5036926;28;20487;-81
2022/09/30 01:10:52;;;;;;;7.57;6.73;;;10.20;99.90;;;;;;5037036;28;20211;-81
2022/09/30 01:13:22;;;;;;;7.18;6.68;;;10.20;99.90;;;;;;5037505;28;20451;-82
2022/09/30 01:16:05;;;;;;;6.53;6.03;;;10.30;99.90;;;;;;5037824;28;20269;-81
2022/09/30 01:18:47;;;;;;;8.80;8.10;;;10.30;99.90;;;;;;5038602;28;20566;-82
2022/09/30 01:21:47;;;;;;;7.85;7.15;;;10.30;99.90;;;;;;5038400;28;20784;-82
2022/09/30 01:24:38;;;;;;;5.60;5.13;;;10.40;99.90;;;;;;5018812;28;20813;-82
2022/09/30 01:27:19;;;;;;;5.30;4.83;;;10.40;99.90;;;;;;5019181;28;20224;-82
2022/09/30 01:30:09;;;;;;;6.50;5.90;;;10.30;99.90;;;;;;5031121;28;20451;-82
2022/09/30 01:33:11;;;;;;;6.50;5.90;;;10.30;99.90;;;;;;5038497;28;20452;-82
2022/09/30 01:35:47;;;;;;;7.03;6.33;;;10.30;99.90;;;;;;5012125;28;20447;-82
2022/09/30 01:38:21;;;;;;;7.07;6.40;;;10.30;99.90;;;;;;5024150;28;20479;-82
2022/09/30 01:40:55;;;;;;;7.60;6.70;;;10.30;99.90;;;;;;5038587;28;20455;-82
2022/09/30 01:43:31;;;;;;;6.33;5.70;;;10.30;99.90;;;;;;5038113;28;21010;-82
2022/09/30 01:46:03;;;;;;;6.90;6.30;;;10.30;99.90;;;;;;5038224;28;20514;-82
2022/09/30 01:48:39;;;;;;;8.13;6.83;;;10.30;99.90;;;;;;5038155;28;20996;-82
2022/09/30 01:51:09;;;;;;;11.00;7.80;;;10.30;99.90;;;;;;5038294;28;20481;-82
2022/09/30 01:53:43;;;;;;;8.03;6.90;;;10.30;99.90;;;;;;5038272;28;20449;-82
2022/09/30 01:56:17;;;;;;;8.53;7.73;;;10.30;99.90;;;;;;5036229;28;20455;-82
2022/09/30 01:58:51;;;;;;;8.57;7.00;;;10.30;99.90;;;;;;5036592;28;20493;-82
2022/09/30 02:01:25;;;;;;;7.70;7.10;;;10.30;99.90;;;;;;5036628;28;20458;-81
2022/09/30 02:03:56;;;;;;;8.50;7.30;;;10.30;99.90;;;;;;5035932;28;20858;-81
2022/09/30 02:06:28;;;;;;;8.40;6.73;;;10.30;99.90;;;;;;5036130;28;20459;-82
2022/09/30 02:08:59;;;;;;;7.03;5.60;;;10.30;99.90;;;;;;5036047;28;20486;-82
2022/09/30 02:11:29;;;;;;;7.87;6.10;;;10.30;99.90;;;;;;5036254;28;20457;-82
2022/09/30 02:14:01;;;;;;;8.40;7.57;;;10.30;99.90;;;;;;5036655;28;20447;-82
2022/09/30 02:16:32;;;;;;;7.25;6.57;;;10.30;99.90;;;;;;5036238;28;20212;-82
2022/09/30 02:19:06;;;;;;;8.10;6.93;;;10.30;99.90;;;;;;5035870;28;20608;-82
2022/09/30 02:21:38;;;;;;;8.20;7.50;;;10.30;99.90;;;;;;5035880;28;20453;-82
2022/09/30 02:24:10;;;;;;;7.40;6.70;;;10.30;99.90;;;;;;5036859;28;20225;-82
2022/09/30 02:26:40;;;;;;;8.57;6.40;;;10.30;99.90;;;;;;5037064;28;20585;-82
2022/09/30 02:29:12;;;;;;;7.67;6.93;;;10.30;99.90;;;;;;5036043;28;20208;-81
2022/09/30 02:31:44;;;;;;;8.03;6.10;;;10.20;99.90;;;;;;5034933;28;20462;-81
2022/09/30 02:34:15;;;;;;;5.97;5.47;;;10.20;99.90;;;;;;5034430;28;20462;-81
2022/09/30 02:36:47;;;;;;;7.33;6.23;;;10.20;99.90;;;;;;5035151;28;20215;-82
2022/09/30 02:39:27;;;;;;;10.50;6.23;;;10.10;99.90;;;;;;5034976;28;20459;-81
2022/09/30 02:42:00;;;;;;;17.48;6.88;;;10.10;99.90;;;;;;5035471;28;20462;-82
2022/09/30 02:44:27;;;;;;;7.40;6.70;;;10.10;99.90;;;;;;5035182;28;20207;-82
2022/09/30 02:47:00;;;;;;;8.43;7.33;;;10.10;99.90;;;;;;5035617;28;20213;-82
2022/09/30 02:49:36;;;;;;;8.63;6.50;;;10.10;99.90;;;;;;5036396;28;20506;-82
2022/09/30 02:52:14;;;;;;;8.02;7.32;;;10.10;99.90;;;;;;5035781;28;20454;-82
2022/09/30 02:54:48;;;;;;;8.25;6.10;;;10.10;99.90;;;;;;5035498;28;20258;-82
2022/09/30 02:57:19;;;;;;;7.37;6.77;;;10.10;99.90;;;;;;5036193;28;20237;-82
2022/09/30 02:59:47;;;;;;;7.53;6.78;;;10.00;99.90;;;;;;5035286;28;20452;-82
2022/09/30 03:02:14;;;;;;;12.65;6.88;;;10.00;99.90;;;;;;5035590;28;20212;-82
2022/09/30 03:04:44;;;;;;;8.20;6.43;;;10.10;99.90;;;;;;5034714;28;20250;-82
2022/09/30 03:07:11;;;;;;;7.10;6.40;;;10.10;99.90;;;;;;5034534;28;21007;-81
2022/09/30 03:09:38;;;;;;;8.40;6.47;;;10.10;99.90;;;;;;5034408;28;20458;-82
2022/09/30 03:12:23;;;;;;;8.20;6.63;;;10.10;99.90;;;;;;5035380;28;20474;-81
2022/09/30 03:15:08;;;;;;;9.40;8.30;;;10.10;99.90;;;;;;5034780;28;20446;-81
2022/09/30 03:17:52;;;;;;;7.70;7.00;;;10.10;99.90;;;;;;5033872;28;20474;-82
2022/09/30 03:20:36;;;;;;;8.10;6.40;;;10.10;99.90;;;;;;5036182;28;20458;-82
2022/09/30 03:23:47;;;;;;;6.47;5.97;;;10.10;99.90;;;;;;5036790;28;20212;-82
2022/09/30 03:26:24;;;;;;;7.63;6.70;;;10.10;99.90;;;;;;4998280;28;20515;-82
2022/09/30 03:28:58;;;;;;;9.93;9.00;;;10.10;99.90;;;;;;5035329;28;20479;-82
2022/09/30 03:31:38;;;;;;;8.63;7.82;;;10.00;99.90;;;;;;5036656;28;20456;-82
2022/09/30 03:34:19;;;;;;;9.40;8.30;;;10.00;99.90;;;;;;5036092;28;20224;-82
2022/09/30 03:36:59;;;;;;;9.53;8.47;;;10.00;99.90;;;;;;5035972;28;20468;-81
2022/09/30 03:39:33;;;;;;;9.20;8.00;;;10.00;99.90;;;;;;5035176;28;20466;-82
2022/09/30 03:42:08;;;;;;;9.55;8.85;;;10.00;99.90;;;;;;5034909;28;20453;-82
2022/09/30 03:44:42;;;;;;;12.33;8.67;;;10.00;99.90;;;;;;5035327;28;20221;-82
2022/09/30 03:47:11;;;;;;;9.77;8.27;;;10.00;99.90;;;;;;5035595;28;20468;-82
2022/09/30 03:49:42;;;;;;;8.60;7.38;;;10.00;99.90;;;;;;5034756;28;20848;-82
2022/09/30 03:52:13;;;;;;;8.60;7.80;;;10.00;99.90;;;;;;5035477;28;20216;-82
2022/09/30 03:54:47;;;;;;;9.38;8.45;;;10.00;99.90;;;;;;5034835;28;20211;-82
2022/09/30 03:57:14;;;;;;;9.97;9.17;;;10.00;99.90;;;;;;5034184;28;20240;-81
2022/09/30 03:59:40;;;;;;;9.40;8.60;;;10.00;99.90;;;;;;5034268;28;20457;-82
2022/09/30 04:02:12;;;;;;;8.77;7.90;;;10.00;99.90;;;;;;5034657;28;20623;-81
2022/09/30 04:04:39;;;;;;;12.68;8.70;;;10.00;99.90;;;;;;5034656;28;20482;-81
2022/09/30 04:07:06;;;;;;;12.80;6.77;;;10.10;99.90;;;;;;5034239;28;20308;-82
2022/09/30 04:09:34;;;;;;;8.10;7.45;;;10.00;99.90;;;;;;5033752;28;20505;-81
2022/09/30 04:12:01;;;;;;;8.17;7.40;;;10.00;99.90;;;;;;5034271;28;20219;-81
2022/09/30 04:14:28;;;;;;;8.80;7.90;;;10.00;99.90;;;;;;5033998;28;20482;-81
2022/09/30 04:16:54;;;;;;;8.00;7.30;;;10.00;99.90;;;;;;5033978;28;20455;-81
2022/09/30 04:19:21;;;;;;;8.38;7.40;;;10.00;99.90;;;;;;5033482;28;20580;-81
2022/09/30 04:21:50;;;;;;;8.32;7.57;;;9.90;99.90;;;;;;5033619;28;20209;-82
2022/09/30 04:24:17;;;;;;;8.63;7.90;;;9.90;99.90;;;;;;5033889;28;20725;-81
2022/09/30 04:26:45;;;;;;;8.93;8.20;;;9.90;99.90;;;;;;5033521;28;20454;-81
2022/09/30 04:29:11;;;;;;;8.70;7.80;;;9.90;99.90;;;;;;5036084;28;20211;-82
2022/09/30 04:31:38;;;;;;;9.23;6.83;;;9.90;99.90;;;;;;5037133;28;20220;-82
2022/09/30 04:34:05;;;;;;;9.45;8.50;;;9.90;99.90;;;;;;5039035;28;20927;-81
2022/09/30 04:36:32;;;;;;;7.93;7.20;;;9.90;99.90;;;;;;5039453;28;20219;-82
2022/09/30 04:38:59;;;;;;;6.97;6.38;;;9.90;99.90;;;;;;5039477;28;20481;-82
2022/09/30 04:41:25;;;;;;;9.15;8.45;;;9.80;99.90;;;;;;5039432;28;20291;-81
2022/09/30 04:43:55;;;;;;;8.45;7.40;;;9.80;99.90;;;;;;5039815;28;20219;-82
2022/09/30 04:46:22;;;;;;;8.20;7.40;;;9.70;99.90;;;;;;5038914;28;20226;-82
2022/09/30 04:48:49;;;;;;;7.17;6.50;;;9.70;99.90;;;;;;5038957;28;20273;-82
2022/09/30 04:51:18;;;;;;;8.52;7.80;;;9.60;99.90;;;;;;5039545;28;20461;-82
2022/09/30 04:53:46;;;;;;;10.10;9.20;;;9.50;99.90;;;;;;5039408;28;20234;-82
2022/09/30 04:56:15;;;;;;;12.98;10.55;;;9.40;99.90;;;;;;5039351;28;20214;-82
2022/09/30 04:58:43;;;;;;;9.63;8.68;;;9.30;99.90;;;;;;5038942;28;20228;-82
2022/09/30 05:01:13;;;;;;;14.38;12.82;;;9.20;99.90;;;;;;5038466;28;20229;-82
2022/09/30 05:03:40;;;;;;;11.25;10.15;;;9.20;99.90;;;;;;5039030;28;20216;-82
2022/09/30 05:06:07;;;;;;;19.83;10.75;;;9.20;99.90;;;;;;5039069;28;20245;-82
2022/09/30 05:08:34;;;;;;;28.33;11.77;;;9.10;99.90;;;;;;5038366;28;20231;-82
2022/09/30 05:11:03;;;;;;;17.77;11.05;;;9.10;99.90;;;;;;5038645;28;20680;-82
2022/09/30 05:13:33;;;;;;;18.48;11.50;;;9.10;99.90;;;;;;5037095;28;20214;-82
2022/09/30 05:16:01;;;;;;;15.88;11.40;;;9.10;99.90;;;;;;5038634;28;20203;-82
2022/09/30 05:18:29;;;;;;;11.70;9.93;;;9.00;99.90;;;;;;5037424;28;20222;-82
2022/09/30 05:20:58;;;;;;;12.13;10.93;;;9.00;99.90;;;;;;5018996;28;20215;-82
2022/09/30 05:23:26;;;;;;;11.02;9.80;;;9.00;99.90;;;;;;5036973;28;20207;-82
2022/09/30 05:25:53;;;;;;;10.52;9.43;;;9.00;99.90;;;;;;5038965;28;20246;-81
2022/09/30 05:28:21;;;;;;;10.75;9.65;;;9.00;99.90;;;;;;5037903;28;20223;-82
2022/09/30 05:30:49;;;;;;;10.65;9.65;;;9.00;99.90;;;;;;5038189;28;20222;-82
2022/09/30 05:33:17;;;;;;;11.23;10.10;;;9.00;99.90;;;;;;5037868;28;20199;-82
2022/09/30 05:35:45;;;;;;;11.73;10.45;;;9.00;99.90;;;;;;5038458;28;20207;-82
2022/09/30 05:38:12;;;;;;;13.02;11.52;;;9.10;99.90;;;;;;5038199;28;20223;-82
2022/09/30 05:40:39;;;;;;;11.82;10.38;;;9.00;99.90;;;;;;5038461;28;20207;-82
2022/09/30 05:43:07;;;;;;;10.88;9.75;;;9.00;99.90;;;;;;5038477;28;20209;-82
2022/09/30 05:45:34;;;;;;;10.57;9.60;;;9.10;99.90;;;;;;5038565;28;20226;-82
2022/09/30 05:48:01;;;;;;;11.13;10.07;;;9.10;99.90;;;;;;5037559;28;20551;-82
2022/09/30 05:50:28;;;;;;;10.45;9.55;;;9.10;99.90;;;;;;5037931;28;20945;-82
2022/09/30 05:52:57;;;;;;;10.35;9.20;;;9.10;99.90;;;;;;5038084;28;20206;-82
2022/09/30 05:55:24;;;;;;;9.18;8.40;;;9.10;99.90;;;;;;5037667;28;20195;-82
2022/09/30 05:57:51;;;;;;;12.13;9.88;;;9.20;99.90;;;;;;5038010;28;20227;-82
2022/09/30 06:00:19;;;;;;;9.10;8.30;;;9.20;99.90;;;;;;5037556;28;20205;-81
2022/09/30 06:02:45;;;;;;;8.82;8.02;;;9.30;99.90;;;;;;5038265;28;20233;-82
2022/09/30 06:05:15;;;;;;;10.55;9.60;;;9.30;99.90;;;;;;5037688;28;20560;-83
2022/09/30 06:07:42;;;;;;;10.55;9.52;;;9.40;99.90;;;;;;5037581;28;20243;-82
2022/09/30 06:10:11;;;;;;;9.77;8.75;;;9.50;99.90;;;;;;5037770;28;20203;-83
2022/09/30 06:12:38;;;;;;;10.98;9.02;;;9.50;99.90;;;;;;5038793;28;20200;-85
2022/09/30 06:15:05;;;;;;;8.90;8.15;;;9.50;99.90;;;;;;5039319;28;20660;-82
2022/09/30 06:17:32;;;;;;;11.65;9.52;;;9.60;99.90;;;;;;5038820;28;20602;-81
2022/09/30 06:19:59;;;;;;;9.63;8.73;;;9.70;99.90;;;;;;5038301;28;20200;-82
2022/09/30 06:39:13;;;;;;;10.00;9.02;;;10.20;99.90;;;;;;4996950;28;20440;-85
2022/09/30 07:01:52;;;;;;;11.37;10.10;;;10.90;99.90;;;;;;5065449;28;20196;-88
2022/09/30 07:04:20;;;;;;;10.73;9.60;;;10.90;99.90;;;;;;5062395;28;20546;-85
2022/09/30 07:06:47;;;;;;;10.83;9.83;;;11.00;99.90;;;;;;5043448;28;20474;-86
2022/09/30 07:09:14;;;;;;;11.17;9.67;;;11.00;99.90;;;;;;5043468;28;20451;-85
2022/09/30 07:11:41;;;;;;;11.40;10.30;;;11.10;99.90;;;;;;5027567;28;20877;-85
2022/09/30 07:14:09;;;;;;;15.20;13.70;;;11.20;99.90;;;;;;5041830;28;20471;-84
2022/09/30 07:16:37;;;;;;;11.10;10.20;;;11.20;99.90;;;;;;5040553;28;20463;-85
2022/09/30 07:19:05;;;;;;;14.27;13.00;;;11.20;99.90;;;;;;5040573;28;20815;-85
2022/09/30 07:22:26;;;;;;;11.67;10.57;;;11.30;99.90;;;;;;5037747;28;20456;-86
2022/09/30 07:25:28;;;;;;;11.40;10.50;;;11.40;99.90;;;;;;5034877;28;20480;-89
2022/09/30 07:28:26;;;;;;;9.70;8.80;;;11.40;99.90;;;;;;5038732;28;20487;-86
2022/09/30 07:30:57;;;;;;;9.80;9.07;;;11.40;99.90;;;;;;5031895;28;20494;-86
2022/09/30 07:33:32;;;;;;;12.27;11.07;;;11.40;99.90;;;;;;5035421;28;20498;-86
2022/09/30 07:39:21;;;;;;;9.10;8.30;;;11.50;99.90;;;;;;5038291;28;20443;-86
2022/09/30 07:41:51;;;;;;;10.67;9.63;;;11.50;99.90;;;;;;5044194;28;20535;-86
2022/09/30 07:44:35;;;;;;;10.80;9.90;;;11.50;99.90;;;;;;5038444;28;20466;-86
2022/09/30 08:05:11;;;;;;;10.97;9.87;;;12.20;99.90;;;;;;5004681;28;20566;-86
2022/09/30 08:07:42;;;;;;;12.00;10.23;;;12.40;99.90;;;;;;5008237;28;20840;-87
2022/09/30 08:10:11;;;;;;;10.90;9.80;;;12.50;99.90;;;;;;5013533;28;20465;-86
2022/09/30 08:12:44;;;;;;;15.30;11.07;;;12.60;99.90;;;;;;5013665;28;20448;-86
2022/09/30 08:15:11;;;;;;;12.23;10.93;;;12.70;99.90;;;;;;5029766;28;20460;-87
2022/09/30 08:17:42;;;;;;;11.03;10.10;;;12.80;99.90;;;;;;5035303;28;21052;-87
2022/09/30 08:20:09;;;;;;;9.93;9.03;;;12.90;99.90;;;;;;5046530;28;20472;-86
2022/09/30 08:22:36;;;;;;;11.83;10.90;;;13.00;99.90;;;;;;5035250;28;20527;-87
2022/09/30 08:25:05;;;;;;;13.47;12.17;;;13.10;99.90;;;;;;5035059;28;21000;-86
2022/09/30 08:27:32;;;;;;;13.60;12.23;;;13.20;99.90;;;;;;5034823;28;21008;-88
2022/09/30 08:29:59;;;;;;;14.40;13.00;;;13.20;99.90;;;;;;5035041;28;20459;-86
2022/09/30 08:32:29;;;;;;;12.33;11.23;;;13.30;99.90;;;;;;5035021;28;20444;-87
2022/09/30 08:34:56;;;;;;;13.73;12.43;;;13.30;99.90;;;;;;5035944;28;20441;-87
2022/09/30 08:37:23;;;;;;;14.43;12.87;;;13.40;99.90;;;;;;5035190;28;20994;-86
2022/09/30 08:39:50;;;;;;;13.30;12.00;;;13.50;99.90;;;;;;5035112;28;20461;-87
2022/09/30 08:42:43;;;;;;;14.30;12.90;;;13.60;99.90;;;;;;5035500;28;20541;-87
2022/09/30 08:45:20;;;;;;;14.37;12.80;;;13.60;99.90;;;;;;5035199;28;21007;-86
2022/09/30 08:47:54;;;;;;;15.60;13.53;;;13.60;99.90;;;;;;5034807;28;20461;-87
2022/09/30 08:50:29;;;;;;;13.70;12.40;;;13.60;99.90;;;;;;5035349;28;20449;-87
2022/09/30 08:53:01;;;;;;;15.37;13.97;;;13.60;99.90;;;;;;5035369;28;20455;-86
2022/09/30 08:55:35;;;;;;;15.30;12.70;;;13.70;99.90;;;;;;5035159;28;20934;-87
2022/09/30 08:58:04;;;;;;;16.43;14.77;;;13.60;99.90;;;;;;5035068;28;20480;-86
2022/09/30 09:00:31;;;;;;;14.60;13.27;;;13.60;99.90;;;;;;5035182;28;20516;-87
2022/09/30 09:03:00;;;;;;;16.67;13.90;;;13.60;99.90;;;;;;5035257;28;21060;-86
2022/09/30 09:05:38;;;;;;;17.87;14.33;;;13.60;99.90;;;;;;5034665;28;20484;-87
2022/09/30 09:08:14;;;;;;;14.73;13.30;;;13.50;99.90;;;;;;5034487;28;20463;-87
2022/09/30 09:10:45;;;;;;;14.90;13.20;;;13.50;99.90;;;;;;5034697;28;20447;-87
2022/09/30 09:13:24;;;;;;;15.27;11.77;;;13.60;99.90;;;;;;5045490;28;20456;-90
2022/09/30 09:16:02;;;;;;;14.80;12.60;;;13.50;99.90;;;;;;5038386;28;20491;-86
2022/09/30 09:18:45;;;;;;;13.97;12.67;;;13.60;99.90;;;;;;5034586;28;20469;-87
2022/09/30 09:21:21;;;;;;;11.37;10.23;;;13.70;99.90;;;;;;5034633;28;20803;-87
2022/09/30 09:23:49;;;;;;;12.20;10.93;;;13.80;99.90;;;;;;5035071;28;20445;-86
2022/09/30 09:26:17;;;;;;;11.53;10.30;;;14.00;99.90;;;;;;5034590;28;20489;-87
2022/09/30 09:28:57;;;;;;;10.43;9.10;;;14.10;99.90;;;;;;5034154;28;20473;-87
2022/09/30 09:31:26;;;;;;;9.03;8.23;;;14.30;99.90;;;;;;5034843;28;20851;-87
2022/09/30 09:34:00;;;;;;;8.67;7.90;;;14.50;99.90;;;;;;5034789;28;20453;-87
2022/09/30 09:36:47;;;;;;;8.50;7.80;;;14.70;99.90;;;;;;5034602;28;20441;-87
2022/09/30 09:39:34;;;;;;;8.43;6.93;;;14.90;99.90;;;;;;5034413;28;20455;-87
2022/09/30 09:42:11;;;;;;;7.43;6.70;;;15.10;99.90;;;;;;5034809;28;20954;-86
2022/09/30 09:44:47;;;;;;;8.23;7.43;;;15.00;99.90;;;;;;5034615;28;21143;-87
2022/09/30 09:47:14;;;;;;;7.27;6.60;;;15.20;99.90;;;;;;5034229;28;21179;-87
2022/09/30 09:49:45;;;;;;;7.30;6.60;;;15.30;99.90;;;;;;5034321;28;20520;-86
2022/09/30 09:52:29;;;;;;;9.67;8.77;;;15.50;99.90;;;;;;5034512;28;20460;-87
2022/09/30 09:54:56;;;;;;;7.50;6.80;;;15.70;99.90;;;;;;5033909;28;20461;-87
2022/09/30 09:57:26;;;;;;;7.83;7.07;;;15.90;99.90;;;;;;5033840;28;20902;-87
2022/09/30 09:59:58;;;;;;;7.27;6.60;;;16.10;99.90;;;;;;5043145;28;20459;-87
2022/09/30 10:02:28;;;;;;;6.93;6.40;;;16.30;99.90;;;;;;5053006;28;20456;-87
2022/09/30 10:05:01;;;;;;;7.10;6.60;;;16.30;99.90;;;;;;5050482;28;20495;-87
2022/09/30 10:07:31;;;;;;;5.63;5.13;;;16.50;99.90;;;;;;5040747;28;20454;-90
2022/09/30 10:10:15;;;;;;;6.77;6.27;;;16.50;99.90;;;;;;5048387;28;20549;-87
2022/09/30 10:12:42;;;;;;;11.07;8.20;;;16.60;99.60;;;;;;5033851;28;21153;-87
2022/09/30 10:15:21;;;;;;;8.07;7.30;;;16.60;99.40;;;;;;5033529;28;20538;-87
2022/09/30 10:17:53;;;;;;;9.67;8.77;;;16.70;99.90;;;;;;5032936;28;20465;-87
2022/09/30 10:20:27;;;;;;;6.30;5.70;;;16.70;99.90;;;;;;5033290;28;20455;-87
2022/09/30 10:23:03;;;;;;;6.90;5.90;;;16.90;99.90;;;;;;5033308;28;20454;-87
2022/09/30 10:25:30;;;;;;;6.20;5.70;;;16.90;99.40;;;;;;5032249;28;20862;-87
2022/09/30 10:28:00;;;;;;;5.47;4.90;;;17.10;99.10;;;;;;5033103;28;20565;-87
2022/09/30 10:30:43;;;;;;;4.83;4.43;;;17.20;98.60;;;;;;5033150;28;20449;-87
2022/09/30 10:33:17;;;;;;;4.57;4.17;;;17.30;97.00;;;;;;5033078;28;20787;-87
2022/09/30 10:36:05;;;;;;;5.10;4.70;;;17.50;96.60;;;;;;5032954;28;20451;-87
2022/09/30 10:38:33;;;;;;;6.10;5.00;;;17.60;96.30;;;;;;5032652;28;20468;-87
2022/09/30 10:41:01;;;;;;;6.47;5.97;;;17.60;96.10;;;;;;5032903;28;20810;-87
2022/09/30 10:43:33;;;;;;;5.73;5.30;;;17.70;96.20;;;;;;5032953;28;20474;-88
2022/09/30 10:46:37;;;;;;;5.20;4.73;;;17.80;95.80;;;;;;5033314;28;20490;-88
2022/09/30 10:52:50;;;;;;;6.37;4.03;;;18.40;96.10;;;;;;5010591;28;20982;-87
2022/09/30 10:55:30;;;;;;;4.40;4.00;;;19.10;95.00;;;;;;5030489;28;20526;-87
2022/09/30 10:58:03;;;;;;;4.90;3.73;;;20.00;92.40;;;;;;5034148;28;20558;-87
2022/09/30 11:00:31;;;;;;;3.97;3.60;;;20.80;92.00;;;;;;5033402;28;20442;-87
2022/09/30 11:03:05;;;;;;;4.20;3.90;;;21.60;88.70;;;;;;5043040;28;20457;-88
2022/09/30 11:05:35;;;;;;;3.83;3.43;;;22.50;87.00;;;;;;5039441;28;20480;-86
2022/09/30 11:08:09;;;;;;;3.10;2.80;;;23.30;85.50;;;;;;5033879;28;20500;-86
2022/09/30 11:10:44;;;;;;;3.30;3.10;;;24.00;78.50;;;;;;5033556;28;20450;-86
2022/09/30 11:13:18;;;;;;;2.73;2.60;;;24.50;73.30;;;;;;5033910;28;20454;-86
2022/09/30 11:15:56;;;;;;;3.03;2.83;;;25.10;72.50;;;;;;5033197;28;20528;-86
2022/09/30 11:18:30;;;;;;;5.37;4.97;;;25.60;63.30;;;;;;5033606;28;20463;-86
2022/09/30 11:21:03;;;;;;;5.50;5.10;;;25.80;62.50;;;;;;5034697;28;20451;-86
2022/09/30 11:23:35;;;;;;;4.47;4.07;;;25.50;64.10;;;;;;5038399;28;20517;-86
2022/09/30 11:26:10;;;;;;;4.43;4.07;;;25.60;66.40;;;;;;5037493;28;20475;-86
2022/09/30 11:29:06;;;;;;;4.80;4.33;;;25.90;64.70;;;;;;5033134;28;20482;-86
2022/09/30 11:31:37;;;;;;;3.40;3.20;;;26.50;64.00;;;;;;5033610;28;20481;-86
2022/09/30 11:34:28;;;;;;;3.20;2.87;;;27.10;62.50;;;;;;5033329;28;20527;-86
2022/09/30 11:37:01;;;;;;;3.70;3.43;;;27.70;58.20;;;;;;5036820;28;20488;-86
2022/09/30 11:39:46;;;;;;;4.03;3.07;;;28.10;57.10;;;;;;5029838;28;21024;-87
2022/09/30 11:42:20;;;;;;;4.37;3.40;;;28.80;56.40;;;;;;5038690;28;20487;-87
2022/09/30 11:44:51;;;;;;;3.10;2.90;;;29.30;54.10;;;;;;5042631;28;20447;-86
2022/09/30 11:47:40;;;;;;;2.70;2.50;;;29.70;51.50;;;;;;5042960;28;20478;-86
2022/09/30 11:50:46;;;;;;;2.60;2.40;;;30.10;50.40;;;;;;5040642;28;20457;-86
2022/09/30 11:53:23;;;;;;;2.13;2.03;;;30.30;48.60;;;;;;5038409;28;20437;-83
2022/09/30 11:56:06;;;;;;;2.53;1.80;;;30.40;47.30;;;;;;5018700;28;20470;-85
2022/09/30 11:58:37;;;;;;;3.10;2.90;;;30.80;46.80;;;;;;5022896;28;20542;-83
2022/09/30 12:01:17;;;;;;;2.73;1.73;;;31.00;43.00;;;;;;5054451;28;20872;-84
2022/09/30 12:03:53;;;;;;;2.20;2.10;;;30.90;41.50;;;;;;5039093;28;20863;-84
2022/09/30 12:06:28;;;;;;;1.80;1.60;;;31.00;40.70;;;;;;5038819;28;20449;-83
2022/09/30 12:08:59;;;;;;;2.40;2.10;;;31.30;41.60;;;;;;5037539;28;20566;-83
2022/09/30 12:11:34;;;;;;;2.30;2.20;;;31.50;41.40;;;;;;5038534;28;20431;-83
2022/09/30 12:14:06;;;;;;;2.97;2.70;;;31.90;41.20;;;;;;5037575;28;20450;-84
2022/09/30 12:16:35;;;;;;;2.43;2.10;;;32.20;40.50;;;;;;5037317;28;20491;-83
2022/09/30 12:19:43;;;;;;;4.53;2.00;;;32.50;40.10;;;;;;5037209;28;20808;-84
2022/09/30 12:22:20;;;;;;;1.60;1.50;;;32.80;38.80;;;;;;5027227;28;20479;-86
2022/09/30 12:24:47;;;;;;;1.73;1.63;;;31.90;36.80;;;;;;5037138;28;20538;-84
2022/09/30 12:27:18;;;;;;;1.73;1.63;;;31.70;36.30;;;;;;5055072;22;20550;-85
2022/09/30 12:30:19;;;;;;;1.77;1.67;;;31.80;36.80;;;;;;5042418;28;20543;-86
2022/09/30 12:34:03;;;;;;;1.47;1.47;;;31.70;36.30;;;;;;5036295;28;20481;-84
2022/09/30 12:40:47;;;;;;;2.33;2.13;;;32.40;37.00;;;;;;4921297;29;20453;-86
2022/09/30 14:24:33;;;;;;;1.23;1.13;;;25.70;37.20;;;;;;5030274;28;20461;-86
2022/09/30 14:27:21;;;;;;;1.73;1.60;;;24.70;38.80;;;;;;5037864;28;20914;-87
2022/09/30 14:30:00;;;;;;;3.13;1.40;;;24.10;40.30;;;;;;5054642;28;20425;-85
2022/09/30 14:32:30;;;;;;;1.47;1.37;;;23.40;40.00;;;;;;5053973;28;20455;-86
2022/09/30 14:34:58;;;;;;;2.23;1.50;;;22.60;41.10;;;;;;5054526;28;20449;-86
2022/09/30 14:37:29;;;;;;;1.10;1.10;;;22.00;42.30;;;;;;5053759;28;20490;-86
2022/09/30 14:43:12;;;;;;;1.70;1.60;;;21.50;42.90;;;;;;5047960;28;20463;-87
2022/09/30 14:45:42;;;;;;;2.00;1.60;;;21.30;43.10;;;;;;5061872;28;20968;-85
2022/09/30 14:48:14;;;;;;;1.80;1.40;;;21.30;43.40;;;;;;5062824;28;20466;-85
2022/09/30 15:05:18;;;;;;;2.30;1.53;;;21.90;45.20;;;;;;4850571;29;20440;-87
2022/09/30 15:07:46;;;;;;;1.83;1.60;;;21.80;45.40;;;;;;4840795;29;20485;-82
2022/09/30 15:10:22;;;;;;;1.80;1.30;;;21.30;45.40;;;;;;4978397;28;20844;-84
2022/09/30 15:12:52;;;;;;;5.33;1.70;;;21.00;45.70;;;;;;5053673;28;20451;-84
2022/09/30 15:15:39;;;;;;;3.47;1.70;;;21.00;46.50;;;;;;5054097;28;20939;-84
2022/09/30 15:18:27;;;;;;;1.20;1.03;;;21.10;46.60;;;;;;5053629;28;20539;-84
2022/09/30 15:20:57;;;;;;;1.63;1.50;;;20.80;46.50;;;;;;5054797;28;20465;-84
2022/09/30 15:23:29;;;;;;;1.90;1.60;;;20.40;46.20;;;;;;4997394;28;20461;-84
2022/09/30 15:25:57;;;;;;;2.87;1.37;;;20.20;46.60;;;;;;5023458;28;20461;-84
2022/09/30 15:28:24;;;;;;;2.50;1.50;;;20.10;47.40;;;;;;5014095;28;20477;-84
2022/09/30 15:30:54;;;;;;;2.40;2.17;;;19.60;48.00;;;;;;5013468;28;20971;-84
2022/09/30 15:33:26;;;;;;;4.27;2.60;;;19.20;47.80;;;;;;5032140;28;20449;-83
2022/09/30 15:36:01;;;;;;;1.70;1.60;;;19.00;48.80;;;;;;5015975;28;20449;-83
2022/09/30 15:38:32;;;;;;;4.10;2.40;;;19.00;50.40;;;;;;5033052;28;20472;-83
2022/09/30 15:41:02;;;;;;;5.03;3.80;;;18.80;50.60;;;;;;5015817;28;20456;-85
2022/09/30 15:43:35;;;;;;;4.13;3.30;;;18.50;50.70;;;;;;5031242;28;20455;-83
2022/09/30 15:46:27;;;;;;;4.30;3.10;;;18.50;51.60;;;;;;5042821;28;20456;-82
2022/09/30 15:48:57;;;;;;;1.90;1.80;;;18.40;52.20;;;;;;5053731;28;20457;-82
2022/09/30 15:51:30;;;;;;;2.03;1.93;;;18.30;53.00;;;;;;5050380;28;20450;-82
2022/09/30 15:54:00;;;;;;;2.33;1.53;;;18.20;53.70;;;;;;5034798;28;20450;-83
2022/09/30 15:56:34;;;;;;;2.80;1.30;;;18.20;53.60;;;;;;5036307;28;20578;-84
2022/09/30 15:59:04;;;;;;;1.60;1.50;;;18.10;54.80;;;;;;5035549;28;20479;-84
2022/09/30 16:01:39;;;;;;;2.17;1.73;;;18.10;54.20;;;;;;5021337;28;20457;-83
2022/09/30 16:04:13;;;;;;;3.10;1.40;;;18.00;53.80;;;;;;5029987;28;20476;-85
2022/09/30 16:06:46;;;;;;;1.97;1.87;;;17.90;54.50;;;;;;5020440;28;20483;-85
2022/09/30 16:09:29;;;;;;;1.53;1.10;;;17.60;53.70;;;;;;5025096;28;20459;-85
2022/09/30 16:12:18;;;;;;;1.47;1.37;;;17.60;54.80;;;;;;5029378;28;20455;-86
2022/09/30 16:14:49;;;;;;;2.43;2.20;;;17.50;55.90;;;;;;5034922;28;20474;-84
2022/09/30 16:17:18;;;;;;;3.77;2.00;;;17.50;56.20;;;;;;5020674;28;20496;-85
2022/09/30 16:19:51;;;;;;;2.00;1.90;;;17.40;56.90;;;;;;5015943;28;20456;-86
2022/09/30 16:22:48;;;;;;;1.80;1.37;;;17.30;57.70;;;;;;5016252;28;20467;-86